createdAt,value
2023-03-01T00:00:26.594Z,2.72
2023-03-01T00:02:53.962Z,2.80
2023-03-01T00:05:21.351Z,2.70
2023-03-01T00:07:48.702Z,2.67
2023-03-01T00:10:16.219Z,2.90
2023-03-01T00:12:43.606Z,3.03
2023-03-01T00:15:12.480Z,3.00
2023-03-01T00:17:39.884Z,2.88
2023-03-01T00:20:11.012Z,3.08
2023-03-01T00:22:38.387Z,3.00
2023-03-01T00:25:06.649Z,2.88
2023-03-01T00:27:34.063Z,2.65
2023-03-01T00:30:01.444Z,3.05
2023-03-01T00:32:30.208Z,3.10
2023-03-01T00:34:57.614Z,3.28
2023-03-01T00:37:25.204Z,3.05
2023-03-01T00:39:52.656Z,3.05
2023-03-01T00:42:20.044Z,3.53
2023-03-01T00:44:47.422Z,2.95
2023-03-01T00:47:15.068Z,3.40
2023-03-01T00:49:43.756Z,3.42
2023-03-01T00:52:11.126Z,3.45
2023-03-01T00:54:38.511Z,2.90
2023-03-01T00:57:05.880Z,3.20
2023-03-01T00:59:33.316Z,3.00
2023-03-01T01:02:00.694Z,2.90
2023-03-01T01:04:28.094Z,3.63
2023-03-01T01:06:56.799Z,3.25
2023-03-01T01:09:24.198Z,3.78
2023-03-01T01:11:52.187Z,3.13
2023-03-01T01:14:19.959Z,3.25
2023-03-01T01:16:47.492Z,3.58
2023-03-01T01:19:15.160Z,3.50
2023-03-01T01:21:43.948Z,3.00
2023-03-01T01:24:12.802Z,3.60
2023-03-01T01:26:40.188Z,3.40
2023-03-01T01:29:07.843Z,3.28
2023-03-01T01:31:35.515Z,3.00
2023-03-01T01:34:03.628Z,3.30
2023-03-01T01:36:31.412Z,3.10
2023-03-01T01:38:59.014Z,3.17
2023-03-01T01:41:28.374Z,2.95
2023-03-01T01:44:20.446Z,3.35
2023-03-01T01:46:49.629Z,3.30
2023-03-01T01:49:25.915Z,3.03
2023-03-01T01:51:55.951Z,2.90
2023-03-01T01:54:25.050Z,3.55
2023-03-01T01:56:55.015Z,3.50
2023-03-01T01:59:25.286Z,3.63
2023-03-01T02:01:52.818Z,3.30
2023-03-01T02:04:20.206Z,2.85
2023-03-01T02:06:51.315Z,3.13
2023-03-01T02:09:18.692Z,3.38
2023-03-01T02:11:46.081Z,3.60
2023-03-01T02:14:14.760Z,3.58
2023-03-01T02:16:42.328Z,3.53
2023-03-01T02:19:10.019Z,3.33
2023-03-01T02:21:40.544Z,3.33
2023-03-01T02:24:12.644Z,3.80
2023-03-01T02:26:42.942Z,3.45
2023-03-01T02:29:11.626Z,3.03
2023-03-01T02:31:44.816Z,3.15
2023-03-01T02:34:14.082Z,3.33
2023-03-01T02:36:42.850Z,3.35
2023-03-01T02:39:15.307Z,3.13
2023-03-01T02:41:43.710Z,3.10
2023-03-01T02:44:12.414Z,2.90
2023-03-01T02:46:44.318Z,3.00
2023-03-01T02:49:20.952Z,3.22
2023-03-01T02:51:54.261Z,3.28
2023-03-01T02:54:24.331Z,3.22
2023-03-01T02:56:51.725Z,3.22
2023-03-01T02:59:21.828Z,3.25
2023-03-01T03:04:18.628Z,2.95
2023-03-01T03:06:46.197Z,3.08
2023-03-01T03:09:15.809Z,3.00
2023-03-01T03:11:44.485Z,3.40
2023-03-01T03:14:13.495Z,3.67
2023-03-01T03:16:43.552Z,3.00
2023-03-01T03:21:38.285Z,2.97
2023-03-01T03:24:06.054Z,3.30
2023-03-01T03:26:33.696Z,3.00
2023-03-01T03:29:01.179Z,3.00
2023-03-01T03:31:28.617Z,3.17
2023-03-01T03:33:57.704Z,2.83
2023-03-01T03:36:25.792Z,2.90
2023-03-01T03:38:53.185Z,3.10
2023-03-01T03:41:20.576Z,2.97
2023-03-01T03:43:47.956Z,2.85
2023-03-01T03:46:15.818Z,3.30
2023-03-01T03:48:44.692Z,3.08
2023-03-01T03:51:13.495Z,2.97
2023-03-01T03:53:41.041Z,3.22
2023-03-01T03:56:08.748Z,3.95
2023-03-01T03:58:36.135Z,3.47
2023-03-01T04:01:03.656Z,3.50
2023-03-01T04:03:31.488Z,3.45
2023-03-01T04:05:59.077Z,3.47
2023-03-01T04:08:27.871Z,3.28
2023-03-01T04:10:59.384Z,3.85
2023-03-01T04:13:26.775Z,3.30
2023-03-01T04:15:54.748Z,3.55
2023-03-01T04:18:22.925Z,3.47
2023-03-01T04:20:50.362Z,3.47
2023-03-01T04:23:20.853Z,3.40
2023-03-01T04:25:54.425Z,3.45
2023-03-01T04:28:22.170Z,3.60
2023-03-01T04:30:49.556Z,3.60
2023-03-01T04:33:16.973Z,3.70
2023-03-01T04:35:44.409Z,3.95
2023-03-01T04:38:11.799Z,3.78
2023-03-01T04:40:39.221Z,3.53
2023-03-01T04:43:07.902Z,3.55
2023-03-01T04:45:36.314Z,3.50
2023-03-01T04:48:03.824Z,3.80
2023-03-01T04:50:31.282Z,3.70
2023-03-01T04:53:00.060Z,3.50
2023-03-01T04:55:28.301Z,3.15
2023-03-01T04:57:55.696Z,3.65
2023-03-01T05:00:24.710Z,3.78
2023-03-01T05:02:54.176Z,4.28
2023-03-01T05:05:26.871Z,4.00
2023-03-01T05:07:55.614Z,3.60
2023-03-01T05:10:23.151Z,3.80
2023-03-01T05:12:50.532Z,4.13
2023-03-01T05:15:18.061Z,3.45
2023-03-01T05:17:47.074Z,4.00
2023-03-01T05:20:14.786Z,3.88
2023-03-01T05:22:42.155Z,3.92
2023-03-01T05:25:09.800Z,3.90
2023-03-01T05:27:37.325Z,4.15
2023-03-01T05:30:14.169Z,3.65
2023-03-01T05:32:45.564Z,4.35
2023-03-01T05:35:15.032Z,4.13
2023-03-01T05:37:43.473Z,4.70
2023-03-01T05:40:16.386Z,4.63
2023-03-01T05:42:46.713Z,4.38
2023-03-01T05:45:14.448Z,4.38
2023-03-01T05:47:44.320Z,5.10
2023-03-01T05:50:19.807Z,4.50
2023-03-01T05:52:48.123Z,4.60
2023-03-01T05:55:15.635Z,4.95
2023-03-01T05:57:43.011Z,4.97
2023-03-01T06:00:11.629Z,5.20
2023-03-01T06:02:39.071Z,4.78
2023-03-01T06:05:07.641Z,5.22
2023-03-01T06:07:36.554Z,4.97
2023-03-01T06:10:04.013Z,4.80
2023-03-01T06:12:32.766Z,5.10
2023-03-01T06:15:00.263Z,5.13
2023-03-01T06:17:27.848Z,4.88
2023-03-01T06:19:55.232Z,4.93
2023-03-01T06:22:22.610Z,5.60
2023-03-01T06:24:51.622Z,5.38
2023-03-01T06:27:19.048Z,5.57
2023-03-01T06:29:46.449Z,5.10
2023-03-01T06:32:13.854Z,5.88
2023-03-01T06:34:41.225Z,6.30
2023-03-01T06:37:08.622Z,6.00
2023-03-01T06:39:36.067Z,6.28
2023-03-01T06:42:05.017Z,7.05
2023-03-01T06:44:32.394Z,6.43
2023-03-01T06:47:00.262Z,7.15
2023-03-01T06:49:27.839Z,7.88
2023-03-01T06:51:55.226Z,7.47
2023-03-01T06:54:23.210Z,8.65
2023-03-01T06:56:50.877Z,7.80
2023-03-01T06:59:19.604Z,8.68
2023-03-01T07:01:47.051Z,8.02
2023-03-01T07:04:14.625Z,8.30
2023-03-01T07:06:42.038Z,8.48
2023-03-01T07:09:09.413Z,8.55
2023-03-01T07:11:36.904Z,8.68
2023-03-01T07:14:04.356Z,8.30
2023-03-01T07:16:33.390Z,8.35
2023-03-01T07:19:00.997Z,7.77
2023-03-01T07:21:28.471Z,9.68
2023-03-01T07:23:55.864Z,8.57
2023-03-01T07:26:25.256Z,9.25
2023-03-01T07:28:53.551Z,9.45
2023-03-01T07:31:21.104Z,9.45
2023-03-01T07:33:49.795Z,9.60
2023-03-01T07:36:17.219Z,8.85
2023-03-01T07:38:44.606Z,10.05
2023-03-01T07:41:12.015Z,10.00
2023-03-01T07:43:39.461Z,9.40
2023-03-01T07:46:07.052Z,9.68
2023-03-01T07:48:34.707Z,9.45
2023-03-01T07:51:04.282Z,9.20
2023-03-01T07:53:32.127Z,9.00
2023-03-01T07:56:03.231Z,9.35
2023-03-01T07:58:30.605Z,8.80
2023-03-01T08:00:58.011Z,9.15
2023-03-01T08:03:25.407Z,9.15
2023-03-01T08:05:52.791Z,9.63
2023-03-01T08:08:21.493Z,8.82
2023-03-01T08:10:48.864Z,9.13
2023-03-01T08:13:16.272Z,10.00
2023-03-01T08:15:43.680Z,8.80
2023-03-01T08:18:11.076Z,9.02
2023-03-01T08:20:38.475Z,8.98
2023-03-01T08:23:05.882Z,9.32
2023-03-01T08:25:34.751Z,8.38
2023-03-01T08:28:02.158Z,8.32
2023-03-01T08:30:29.565Z,8.20
2023-03-01T08:32:57.056Z,8.30
2023-03-01T08:35:24.595Z,8.43
2023-03-01T08:37:52.005Z,7.97
2023-03-01T08:40:19.520Z,8.38
2023-03-01T08:42:48.265Z,9.45
2023-03-01T08:45:19.039Z,9.48
2023-03-01T08:47:46.937Z,9.82
2023-03-01T08:50:14.316Z,9.93
2023-03-01T08:52:41.914Z,9.10
2023-03-01T08:55:10.185Z,9.55
2023-03-01T08:57:37.557Z,9.35
2023-03-01T09:00:09.843Z,10.32
2023-03-01T09:02:37.312Z,9.25
2023-03-01T09:05:05.000Z,9.40
2023-03-01T09:07:32.389Z,9.30
2023-03-01T09:09:59.778Z,8.95
2023-03-01T09:12:27.252Z,8.98
2023-03-01T09:14:54.616Z,8.93
2023-03-01T09:17:23.334Z,8.50
2023-03-01T09:19:51.078Z,7.75
2023-03-01T09:22:18.459Z,8.93
2023-03-01T09:24:45.856Z,8.80
2023-03-01T09:27:14.901Z,8.70
2023-03-01T09:29:42.305Z,7.90
2023-03-01T09:32:10.208Z,8.13
2023-03-01T09:34:58.968Z,7.95
2023-03-01T09:37:26.370Z,7.80
2023-03-01T09:39:53.763Z,7.55
2023-03-01T09:42:21.297Z,7.65
2023-03-01T09:44:50.321Z,7.93
2023-03-01T09:47:19.656Z,7.53
2023-03-01T09:49:51.221Z,7.55
2023-03-01T09:52:23.195Z,6.85
2023-03-01T09:54:51.181Z,7.63
2023-03-01T09:57:21.034Z,6.50
2023-03-01T10:00:01.567Z,6.85
2023-03-01T10:02:31.426Z,6.30
2023-03-01T10:05:03.004Z,5.85
2023-03-01T10:07:34.916Z,6.10
2023-03-01T10:10:04.678Z,5.90
2023-03-01T10:12:35.176Z,5.10
2023-03-01T10:15:06.310Z,5.05
2023-03-01T10:17:36.295Z,5.10
2023-03-01T10:20:19.823Z,4.72
2023-03-01T10:22:51.480Z,4.60
2023-03-01T10:25:25.644Z,4.65
2023-03-01T10:27:54.034Z,4.85
2023-03-01T10:30:22.590Z,4.60
2023-03-01T10:32:51.051Z,4.50
2023-03-01T10:35:21.245Z,4.35
2023-03-01T10:40:25.727Z,4.13
2023-03-01T10:42:53.255Z,4.28
2023-03-01T10:45:31.923Z,4.20
2023-03-01T10:48:07.218Z,4.28
2023-03-01T10:50:37.260Z,4.20
2023-03-01T10:53:05.901Z,4.00
2023-03-01T10:55:35.552Z,4.40
2023-03-01T10:58:11.454Z,3.50
2023-03-01T11:00:48.407Z,4.53
2023-03-01T11:03:19.707Z,4.20
2023-03-01T11:06:00.669Z,4.18
2023-03-01T11:08:34.397Z,4.63
2023-03-01T11:11:15.107Z,4.60
2023-03-01T11:13:51.514Z,4.20
2023-03-01T11:16:24.288Z,4.18
2023-03-01T11:18:58.181Z,4.57
2023-03-01T11:21:27.185Z,4.35
2023-03-01T11:23:54.567Z,4.88
2023-03-01T11:26:21.936Z,4.85
2023-03-01T11:28:52.324Z,4.20
2023-03-01T11:31:19.910Z,4.70
2023-03-01T11:33:50.040Z,4.25
2023-03-01T11:38:47.181Z,4.65
2023-03-01T11:41:15.310Z,4.47
2023-03-01T11:43:47.776Z,4.32
2023-03-01T11:46:33.741Z,4.07
2023-03-01T11:49:10.580Z,4.40
2023-03-01T11:51:43.211Z,3.90
2023-03-01T11:54:27.092Z,4.50
2023-03-01T11:56:56.810Z,4.47
2023-03-01T11:59:42.670Z,4.75
2023-03-01T12:02:40.979Z,4.43
2023-03-01T12:05:26.503Z,4.22
2023-03-01T12:07:56.284Z,4.13
2023-03-01T12:10:27.642Z,3.97
2023-03-01T12:13:17.112Z,4.15
2023-03-01T12:16:23.050Z,3.80
2023-03-01T12:19:09.516Z,3.72
2023-03-01T12:21:46.410Z,3.80
2023-03-01T12:24:40.787Z,4.10
2023-03-01T12:27:19.780Z,4.07
2023-03-01T12:29:49.126Z,3.60
2023-03-01T12:32:29.095Z,3.90
2023-03-01T12:35:28.006Z,3.42
2023-03-01T12:37:57.301Z,3.47
2023-03-01T12:40:35.589Z,3.28
2023-03-01T12:43:14.617Z,3.60
2023-03-01T12:45:56.633Z,3.78
2023-03-01T12:48:30.183Z,3.65
2023-03-01T12:50:59.708Z,4.00
2023-03-01T12:53:28.234Z,3.63
2023-03-01T12:55:56.564Z,3.40
2023-03-01T12:58:37.112Z,3.60
2023-03-01T13:01:17.999Z,3.67
2023-03-01T13:03:57.917Z,3.67
2023-03-01T13:06:32.244Z,3.47
2023-03-01T13:11:35.887Z,3.20
2023-03-01T13:14:41.173Z,3.05
2023-03-01T13:17:31.843Z,3.90
2023-03-01T13:19:59.539Z,4.05
2023-03-01T13:22:28.966Z,3.88
2023-03-01T13:25:03.209Z,3.75
2023-03-01T13:27:31.121Z,3.80
2023-03-01T13:30:00.704Z,4.10
2023-03-01T13:32:43.150Z,2.72
2023-03-01T13:35:44.690Z,3.38
2023-03-01T13:38:41.149Z,3.47
2023-03-01T13:41:08.629Z,3.50
2023-03-01T13:43:36.799Z,3.58
2023-03-01T13:46:09.219Z,3.67
2023-03-01T13:48:37.937Z,3.15
2023-03-01T13:51:06.700Z,3.47
2023-03-01T13:53:35.985Z,3.60
2023-03-01T13:56:05.074Z,3.40
2023-03-01T13:58:33.299Z,3.70
2023-03-01T14:01:01.545Z,3.67
2023-03-01T14:03:29.210Z,3.15
2023-03-01T14:06:17.752Z,3.42
2023-03-01T14:08:46.715Z,3.28
2023-03-01T14:11:50.253Z,3.75
2023-03-01T14:14:32.250Z,3.58
2023-03-01T14:17:04.959Z,3.55
2023-03-01T14:19:34.114Z,3.10
2023-03-01T14:22:06.507Z,3.15
2023-03-01T14:24:34.455Z,3.60
2023-03-01T14:27:02.681Z,3.30
2023-03-01T14:29:35.012Z,3.83
2023-03-01T14:32:11.364Z,3.10
2023-03-01T14:34:38.799Z,3.38
2023-03-01T14:37:19.912Z,3.45
2023-03-01T14:39:47.330Z,4.45
2023-03-01T14:42:15.918Z,3.75
2023-03-01T14:44:44.052Z,3.60
2023-03-01T14:47:14.281Z,3.83
2023-03-01T14:52:20.421Z,3.58
2023-03-01T14:54:50.280Z,3.50
2023-03-01T14:57:18.792Z,3.53
2023-03-01T14:59:46.190Z,3.50
2023-03-01T15:02:18.030Z,3.20
2023-03-01T15:04:45.708Z,3.40
2023-03-01T15:07:13.739Z,3.13
2023-03-01T15:09:41.246Z,3.13
2023-03-01T15:12:43.501Z,3.00
2023-03-01T15:15:30.785Z,3.03
2023-03-01T15:17:58.640Z,3.03
2023-03-01T15:20:28.278Z,3.28
2023-03-01T15:22:55.883Z,3.25
2023-03-01T15:25:24.133Z,3.20
2023-03-01T15:27:53.623Z,3.25
2023-03-01T15:30:23.005Z,3.00
2023-03-01T15:32:50.364Z,3.30
2023-03-01T15:35:42.293Z,3.50
2023-03-01T15:38:26.118Z,3.20
2023-03-01T15:40:53.617Z,3.40
2023-03-01T15:43:40.573Z,3.22
2023-03-01T15:46:08.099Z,3.20
2023-03-01T15:48:35.539Z,3.20
2023-03-01T15:51:03.280Z,2.85
2023-03-01T15:53:30.674Z,2.80
2023-03-01T15:55:58.090Z,3.40
2023-03-01T15:58:26.086Z,3.42
2023-03-01T16:01:01.282Z,2.80
2023-03-01T16:03:29.665Z,2.95
2023-03-01T16:05:57.060Z,2.67
2023-03-01T16:08:24.487Z,2.92
2023-03-01T16:10:52.419Z,2.90
2023-03-01T16:13:20.178Z,2.70
2023-03-01T16:15:47.700Z,3.00
2023-03-01T16:18:16.433Z,3.10
2023-03-01T16:20:43.840Z,2.72
2023-03-01T16:23:12.331Z,2.95
2023-03-01T16:25:39.767Z,2.95
2023-03-01T16:28:10.049Z,2.80
2023-03-01T16:30:37.997Z,2.97
2023-03-01T16:33:19.262Z,3.10
2023-03-01T16:35:54.431Z,2.80
2023-03-01T16:38:21.826Z,2.78
2023-03-01T16:40:49.930Z,2.80
2023-03-01T16:43:17.335Z,3.17
2023-03-01T16:45:45.729Z,3.05
2023-03-01T16:48:13.335Z,2.90
2023-03-01T16:50:40.856Z,3.13
2023-03-01T16:53:09.595Z,2.70
2023-03-01T16:55:37.239Z,2.75
2023-03-01T16:58:05.162Z,2.80
2023-03-01T17:00:32.646Z,3.05
2023-03-01T17:03:00.113Z,3.30
2023-03-01T17:05:27.885Z,3.22
2023-03-01T17:07:56.438Z,3.28
2023-03-01T17:10:25.141Z,3.00
2023-03-01T17:12:52.540Z,3.30
2023-03-01T17:15:19.955Z,3.00
2023-03-01T17:17:51.517Z,2.95
2023-03-01T17:20:19.204Z,3.17
2023-03-01T17:22:46.627Z,2.95
2023-03-01T17:25:14.256Z,2.70
2023-03-01T17:27:42.965Z,3.10
2023-03-01T17:30:11.752Z,2.95
2023-03-01T17:32:39.354Z,2.67
2023-03-01T17:35:07.975Z,3.10
2023-03-01T17:37:36.902Z,3.40
2023-03-01T17:40:04.778Z,3.20
2023-03-01T17:42:32.144Z,3.00
2023-03-01T17:45:01.553Z,3.20
2023-03-01T17:47:28.953Z,3.40
2023-03-01T17:49:56.330Z,3.20
2023-03-01T17:52:23.787Z,3.40
2023-03-01T17:54:51.451Z,3.10
2023-03-01T17:57:18.835Z,3.20
2023-03-01T17:59:46.241Z,3.58
2023-03-01T18:02:15.054Z,3.17
2023-03-01T18:04:42.600Z,3.40
2023-03-01T18:07:10.021Z,3.50
2023-03-01T18:09:37.443Z,3.50
2023-03-01T18:12:05.013Z,3.78
2023-03-01T18:14:33.882Z,3.45
2023-03-01T18:17:02.078Z,3.85
2023-03-01T18:19:30.884Z,4.00
2023-03-01T18:21:58.256Z,3.70
2023-03-01T18:24:26.115Z,3.40
2023-03-01T18:26:53.511Z,3.72
2023-03-01T18:29:20.903Z,5.00
2023-03-01T18:31:48.597Z,5.10
2023-03-01T18:34:16.134Z,5.25
2023-03-01T18:37:00.466Z,4.32
2023-03-01T18:39:33.443Z,5.20
2023-03-01T18:42:00.868Z,5.35
2023-03-01T18:44:28.263Z,5.05
2023-03-01T18:46:58.095Z,5.68
2023-03-01T18:49:25.969Z,5.47
2023-03-01T18:51:55.344Z,4.80
2023-03-01T18:54:22.733Z,5.10
2023-03-01T18:56:50.144Z,5.10
2023-03-01T18:59:17.592Z,5.05
2023-03-01T19:01:45.065Z,4.50
2023-03-01T19:04:12.562Z,5.43
2023-03-01T19:06:39.995Z,5.00
2023-03-01T19:09:09.060Z,4.20
2023-03-01T19:11:36.493Z,4.40
2023-03-01T19:14:04.359Z,4.72
2023-03-01T19:16:32.684Z,4.60
2023-03-01T19:19:01.329Z,4.50
2023-03-01T19:21:29.736Z,4.25
2023-03-01T19:23:57.813Z,4.28
2023-03-01T19:26:27.382Z,4.22
2023-03-01T19:28:55.364Z,4.50
2023-03-01T19:31:25.412Z,4.40
2023-03-01T19:33:56.811Z,4.07
2023-03-01T19:36:33.042Z,4.32
2023-03-01T19:39:01.004Z,3.50
2023-03-01T19:41:29.705Z,4.60
2023-03-01T19:43:57.340Z,4.10
2023-03-01T19:46:25.119Z,4.28
2023-03-01T19:48:53.270Z,3.92
2023-03-01T19:53:41.604Z,3.90
2023-03-01T19:56:09.195Z,3.70
2023-03-01T19:58:38.813Z,3.90
2023-03-01T20:01:06.260Z,4.20
2023-03-01T20:03:35.436Z,3.85
2023-03-01T20:06:09.137Z,4.65
2023-03-01T20:08:36.587Z,4.20
2023-03-01T20:11:04.203Z,4.05
2023-03-01T20:13:31.594Z,4.53
2023-03-01T20:16:00.358Z,3.90
2023-03-01T20:18:27.862Z,4.50
2023-03-01T20:20:55.338Z,4.38
2023-03-01T20:23:22.774Z,4.00
2023-03-01T20:25:50.169Z,4.72
2023-03-01T20:28:18.138Z,4.50
2023-03-01T20:30:45.702Z,4.40
2023-03-01T20:33:14.395Z,4.75
2023-03-01T20:35:42.732Z,5.03
2023-03-01T20:38:10.217Z,4.53
2023-03-01T20:40:37.702Z,4.57
2023-03-01T20:43:05.148Z,4.20
2023-03-01T20:45:32.546Z,4.50
2023-03-01T20:47:59.936Z,4.50
2023-03-01T20:50:28.657Z,4.38
2023-03-01T20:52:56.019Z,4.60
2023-03-01T20:55:23.383Z,4.22
2023-03-01T20:57:50.760Z,4.38
2023-03-01T21:00:18.835Z,4.38
2023-03-01T21:02:46.236Z,4.22
2023-03-01T21:05:13.602Z,3.97
2023-03-01T21:07:42.731Z,4.18
2023-03-01T21:10:11.652Z,4.38
2023-03-01T21:12:39.107Z,3.58
2023-03-01T21:15:09.632Z,4.20
2023-03-01T21:17:37.143Z,4.25
2023-03-01T21:20:05.844Z,3.58
2023-03-01T21:22:34.782Z,4.00
2023-03-01T21:25:03.635Z,4.00
2023-03-01T21:27:31.043Z,3.70
2023-03-01T21:29:58.417Z,3.60
2023-03-01T21:32:25.826Z,3.58
2023-03-01T21:34:53.244Z,3.88
2023-03-01T21:37:22.316Z,3.70
2023-03-01T21:39:49.705Z,3.47
2023-03-01T21:42:18.418Z,3.20
2023-03-01T21:44:45.825Z,3.35
2023-03-01T21:47:13.263Z,3.42
2023-03-01T21:49:40.637Z,3.60
2023-03-01T21:52:08.020Z,3.90
2023-03-01T21:54:35.402Z,3.47
2023-03-01T21:57:02.800Z,3.38
2023-03-01T21:59:31.479Z,3.25
2023-03-01T22:01:58.847Z,2.92
2023-03-01T22:04:26.206Z,3.20
2023-03-01T22:06:54.189Z,3.15
2023-03-01T22:09:22.521Z,3.10
2023-03-01T22:11:50.527Z,3.15
2023-03-01T22:14:18.248Z,3.05
2023-03-01T22:16:47.653Z,3.35
2023-03-01T22:19:15.606Z,3.10
2023-03-01T22:21:43.623Z,3.22
2023-03-01T22:24:11.398Z,3.17
2023-03-01T22:26:39.819Z,3.40
2023-03-01T22:29:08.166Z,3.10
2023-03-01T22:31:35.690Z,2.75
2023-03-01T22:34:04.665Z,3.08
2023-03-01T22:36:32.723Z,2.95
2023-03-01T22:39:01.645Z,2.80
2023-03-01T22:41:29.344Z,3.10
2023-03-01T22:43:56.705Z,3.13
2023-03-01T22:46:24.292Z,3.03
2023-03-01T22:48:51.670Z,3.00
2023-03-01T22:51:21.622Z,3.72
2023-03-01T22:53:48.995Z,3.42
2023-03-01T22:56:18.053Z,3.38
2023-03-01T22:58:45.423Z,3.60
2023-03-01T23:01:13.656Z,3.55
2023-03-01T23:03:41.068Z,3.78
2023-03-01T23:06:08.740Z,3.85
2023-03-01T23:08:37.458Z,3.60
2023-03-01T23:11:05.229Z,3.67
2023-03-01T23:13:32.610Z,4.28
2023-03-01T23:15:59.993Z,4.55
2023-03-01T23:18:27.375Z,4.25
2023-03-01T23:20:54.759Z,4.60
2023-03-01T23:23:22.149Z,4.25
2023-03-01T23:25:57.580Z,4.18
2023-03-01T23:28:25.104Z,4.97
2023-03-01T23:30:56.818Z,4.78
2023-03-01T23:33:24.650Z,4.35
2023-03-01T23:35:52.172Z,4.20
2023-03-01T23:38:22.719Z,4.18
2023-03-01T23:40:50.111Z,4.32
2023-03-01T23:43:18.797Z,4.40
2023-03-01T23:45:46.221Z,4.25
2023-03-01T23:48:13.952Z,4.20
2023-03-01T23:50:42.552Z,4.13
2023-03-01T23:53:11.312Z,4.20
2023-03-01T23:55:40.238Z,3.47
2023-03-01T23:58:07.685Z,3.88
